sensor_id;sensor_type;location;lat;lon;timestamp;P1;durP1;ratioP1;P2;durP2;ratioP2
86319;SDS011;76974;51.278;16.870;2024-03-08T03:01:56;30.77;;;13.63;;
86319;SDS011;76974;51.278;16.870;2024-03-08T03:04:23;23.85;;;13.48;;
86319;SDS011;76974;51.278;16.870;2024-03-08T03:06:48;30.67;;;13.95;;
86319;SDS011;76974;51.278;16.870;2024-03-08T03:09:14;27.58;;;14.55;;
86319;SDS011;76974;51.278;16.870;2024-03-08T03:11:44;31.75;;;13.98;;
86319;SDS011;76974;51.278;16.870;2024-03-08T03:14:10;33.55;;;16.15;;
86319;SDS011;76974;51.278;16.870;2024-03-08T03:16:35;35.63;;;16.58;;
86319;SDS011;76974;51.278;16.870;2024-03-08T03:21:30;26.98;;;13.15;;
86319;SDS011;76974;51.278;16.870;2024-03-08T03:23:57;27.95;;;13.85;;
86319;SDS011;76974;51.278;16.870;2024-03-08T03:26:24;30.63;;;13.63;;
86319;SDS011;76974;51.278;16.870;2024-03-08T03:28:51;29.00;;;13.15;;
86319;SDS011;76974;51.278;16.870;2024-03-08T03:31:16;29.83;;;16.38;;
86319;SDS011;76974;51.278;16.870;2024-03-08T03:33:43;26.52;;;14.43;;
86319;SDS011;76974;51.278;16.870;2024-03-08T03:36:09;30.70;;;13.80;;
86319;SDS011;76974;51.278;16.870;2024-03-08T03:38:36;27.58;;;14.45;;
86319;SDS011;76974;51.278;16.870;2024-03-08T03:41:01;29.83;;;15.27;;
86319;SDS011;76974;51.278;16.870;2024-03-08T03:43:35;34.75;;;13.85;;
86319;SDS011;76974;51.278;16.870;2024-03-08T03:46:05;36.25;;;16.58;;
86319;SDS011;76974;51.278;16.870;2024-03-08T03:48:32;30.95;;;14.38;;
86319;SDS011;76974;51.278;16.870;2024-03-08T03:50:58;32.42;;;15.48;;
86319;SDS011;76974;51.278;16.870;2024-03-08T03:53:23;28.05;;;12.20;;
86319;SDS011;76974;51.278;16.870;2024-03-08T03:55:51;26.55;;;12.40;;
86319;SDS011;76974;51.278;16.870;2024-03-08T03:58:16;28.52;;;12.60;;
86319;SDS011;76974;51.278;16.870;2024-03-08T04:00:47;27.13;;;13.80;;
86319;SDS011;76974;51.278;16.870;2024-03-08T04:03:14;36.30;;;17.15;;
86319;SDS011;76974;51.278;16.870;2024-03-08T04:05:40;35.47;;;16.13;;
86319;SDS011;76974;51.278;16.870;2024-03-08T04:10:31;22.95;;;14.00;;
86319;SDS011;76974;51.278;16.870;2024-03-08T04:17:48;41.55;;;15.65;;
86319;SDS011;76974;51.278;16.870;2024-03-08T04:22:40;34.22;;;14.55;;
86319;SDS011;76974;51.278;16.870;2024-03-08T04:25:06;25.27;;;12.70;;
86319;SDS011;76974;51.278;16.870;2024-03-08T04:27:33;25.77;;;13.15;;
86319;SDS011;76974;51.278;16.870;2024-03-08T04:29:59;27.77;;;13.90;;
86319;SDS011;76974;51.278;16.870;2024-03-08T04:32:25;26.88;;;13.68;;
86319;SDS011;76974;51.278;16.870;2024-03-08T04:34:51;24.38;;;13.07;;
86319;SDS011;76974;51.278;16.870;2024-03-08T04:39:47;29.52;;;11.68;;
86319;SDS011;76974;51.278;16.870;2024-03-08T04:42:13;29.83;;;15.05;;
86319;SDS011;76974;51.278;16.870;2024-03-08T04:44:40;28.67;;;12.18;;
86319;SDS011;76974;51.278;16.870;2024-03-08T04:47:06;33.38;;;15.43;;
86319;SDS011;76974;51.278;16.870;2024-03-08T04:52:01;20.52;;;10.07;;
86319;SDS011;76974;51.278;16.870;2024-03-08T04:54:28;27.83;;;13.70;;
86319;SDS011;76974;51.278;16.870;2024-03-08T04:56:54;44.40;;;18.25;;
86319;SDS011;76974;51.278;16.870;2024-03-08T04:59:19;27.60;;;12.80;;
86319;SDS011;76974;51.278;16.870;2024-03-08T05:04:10;23.60;;;13.70;;
86319;SDS011;76974;51.278;16.870;2024-03-08T05:09:05;26.10;;;12.07;;
86319;SDS011;76974;51.278;16.870;2024-03-08T05:11:47;29.02;;;13.23;;
86319;SDS011;76974;51.278;16.870;2024-03-08T05:14:14;54.60;;;23.52;;
86319;SDS011;76974;51.278;16.870;2024-03-08T05:16:48;32.60;;;16.13;;
86319;SDS011;76974;51.278;16.870;2024-03-08T05:19:17;39.90;;;16.80;;
86319;SDS011;76974;51.278;16.870;2024-03-08T05:21:44;27.42;;;12.20;;
86319;SDS011;76974;51.278;16.870;2024-03-08T05:24:13;27.08;;;13.07;;
86319;SDS011;76974;51.278;16.870;2024-03-08T05:26:40;26.05;;;11.98;;
86319;SDS011;76974;51.278;16.870;2024-03-08T05:29:07;30.40;;;13.55;;
86319;SDS011;76974;51.278;16.870;2024-03-08T05:31:55;27.73;;;13.55;;
86319;SDS011;76974;51.278;16.870;2024-03-08T05:34:20;28.30;;;11.90;;
86319;SDS011;76974;51.278;16.870;2024-03-08T05:36:47;40.15;;;18.50;;
86319;SDS011;76974;51.278;16.870;2024-03-08T05:39:16;34.40;;;16.20;;
86319;SDS011;76974;51.278;16.870;2024-03-08T05:41:42;66.55;;;27.75;;
86319;SDS011;76974;51.278;16.870;2024-03-08T05:44:09;32.25;;;14.68;;
86319;SDS011;76974;51.278;16.870;2024-03-08T05:46:35;25.35;;;12.63;;
86319;SDS011;76974;51.278;16.870;2024-03-08T05:49:02;24.58;;;12.05;;
86319;SDS011;76974;51.278;16.870;2024-03-08T05:51:35;29.48;;;14.48;;
86319;SDS011;76974;51.278;16.870;2024-03-08T05:54:02;27.55;;;14.10;;
86319;SDS011;76974;51.278;16.870;2024-03-08T05:56:34;31.85;;;14.55;;
86319;SDS011;76974;51.278;16.870;2024-03-08T05:58:59;32.30;;;16.45;;
86319;SDS011;76974;51.278;16.870;2024-03-08T06:08:10;35.25;;;16.17;;
86319;SDS011;76974;51.278;16.870;2024-03-08T06:10:37;28.70;;;14.60;;
86319;SDS011;76974;51.278;16.870;2024-03-08T06:13:04;33.40;;;15.70;;
86319;SDS011;76974;51.278;16.870;2024-03-08T06:15:30;62.40;;;29.08;;
86319;SDS011;76974;51.278;16.870;2024-03-08T06:20:58;52.08;;;22.85;;
86319;SDS011;76974;51.278;16.870;2024-03-08T06:23:25;41.42;;;19.83;;
86319;SDS011;76974;51.278;16.870;2024-03-08T06:25:52;40.90;;;18.15;;
86319;SDS011;76974;51.278;16.870;2024-03-08T06:31:40;46.70;;;20.90;;
86319;SDS011;76974;51.278;16.870;2024-03-08T06:34:06;40.50;;;20.23;;
86319;SDS011;76974;51.278;16.870;2024-03-08T06:36:34;44.35;;;19.73;;
86319;SDS011;76974;51.278;16.870;2024-03-08T06:39:00;36.03;;;17.85;;
86319;SDS011;76974;51.278;16.870;2024-03-08T06:41:26;45.33;;;22.90;;
86319;SDS011;76974;51.278;16.870;2024-03-08T06:43:52;46.42;;;22.10;;
86319;SDS011;76974;51.278;16.870;2024-03-08T06:46:22;28.95;;;15.57;;
86319;SDS011;76974;51.278;16.870;2024-03-08T06:48:47;37.65;;;19.65;;
86319;SDS011;76974;51.278;16.870;2024-03-08T06:51:14;33.38;;;18.27;;
86319;SDS011;76974;51.278;16.870;2024-03-08T06:53:40;33.08;;;17.25;;
86319;SDS011;76974;51.278;16.870;2024-03-08T06:56:06;21.52;;;11.82;;
86319;SDS011;76974;51.278;16.870;2024-03-08T06:58:32;44.88;;;23.05;;
86319;SDS011;76974;51.278;16.870;2024-03-08T07:00:58;39.50;;;19.00;;
86319;SDS011;76974;51.278;16.870;2024-03-08T07:03:25;44.95;;;21.67;;
86319;SDS011;76974;51.278;16.870;2024-03-08T07:05:52;43.05;;;17.92;;
86319;SDS011;76974;51.278;16.870;2024-03-08T07:08:18;38.13;;;20.20;;
86319;SDS011;76974;51.278;16.870;2024-03-08T07:10:44;45.42;;;21.05;;
86319;SDS011;76974;51.278;16.870;2024-03-08T07:13:10;36.58;;;19.45;;
86319;SDS011;76974;51.278;16.870;2024-03-08T07:15:36;45.10;;;24.70;;
86319;SDS011;76974;51.278;16.870;2024-03-08T07:18:01;49.72;;;21.13;;
86319;SDS011;76974;51.278;16.870;2024-03-08T07:23:49;45.92;;;22.58;;
86319;SDS011;76974;51.278;16.870;2024-03-08T07:29:45;32.58;;;16.30;;
86319;SDS011;76974;51.278;16.870;2024-03-08T07:32:11;35.03;;;19.20;;
86319;SDS011;76974;51.278;16.870;2024-03-08T07:34:46;34.25;;;19.52;;
86319;SDS011;76974;51.278;16.870;2024-03-08T07:40:36;27.25;;;13.30;;
86319;SDS011;76974;51.278;16.870;2024-03-08T07:43:05;29.23;;;16.45;;
86319;SDS011;76974;51.278;16.870;2024-03-08T07:45:35;35.80;;;19.58;;
86319;SDS011;76974;51.278;16.870;2024-03-08T07:48:02;54.13;;;25.65;;
86319;SDS011;76974;51.278;16.870;2024-03-08T07:50:28;29.95;;;16.55;;
86319;SDS011;76974;51.278;16.870;2024-03-08T07:52:54;47.67;;;23.90;;
86319;SDS011;76974;51.278;16.870;2024-03-08T07:55:20;51.58;;;25.50;;
86319;SDS011;76974;51.278;16.870;2024-03-08T07:57:49;34.75;;;22.00;;
86319;SDS011;76974;51.278;16.870;2024-03-08T08:00:15;43.67;;;20.77;;
86319;SDS011;76974;51.278;16.870;2024-03-08T08:02:46;33.90;;;19.52;;
86319;SDS011;76974;51.278;16.870;2024-03-08T08:05:11;39.28;;;18.88;;
86319;SDS011;76974;51.278;16.870;2024-03-08T08:07:38;13.25;;;10.50;;
86319;SDS011;76974;51.278;16.870;2024-03-08T08:10:06;48.38;;;25.25;;
86319;SDS011;76974;51.278;16.870;2024-03-08T08:12:32;32.83;;;17.25;;
86319;SDS011;76974;51.278;16.870;2024-03-08T08:14:59;60.40;;;27.40;;
86319;SDS011;76974;51.278;16.870;2024-03-08T08:17:25;52.17;;;30.13;;
86319;SDS011;76974;51.278;16.870;2024-03-08T08:19:51;58.38;;;27.63;;
86319;SDS011;76974;51.278;16.870;2024-03-08T08:22:16;28.02;;;16.95;;
86319;SDS011;76974;51.278;16.870;2024-03-08T08:24:43;37.92;;;22.42;;
86319;SDS011;76974;51.278;16.870;2024-03-08T08:27:09;46.30;;;22.23;;
86319;SDS011;76974;51.278;16.870;2024-03-08T08:29:37;57.97;;;26.73;;
86319;SDS011;76974;51.278;16.870;2024-03-08T08:32:03;30.70;;;17.88;;
86319;SDS011;76974;51.278;16.870;2024-03-08T08:34:29;28.25;;;16.23;;
86319;SDS011;76974;51.278;16.870;2024-03-08T08:36:57;25.73;;;15.95;;
86319;SDS011;76974;51.278;16.870;2024-03-08T08:39:22;45.35;;;25.25;;
86319;SDS011;76974;51.278;16.870;2024-03-08T08:41:51;36.95;;;20.42;;
86319;SDS011;76974;51.278;16.870;2024-03-08T08:44:17;35.08;;;20.00;;
86319;SDS011;76974;51.278;16.870;2024-03-08T08:46:43;21.80;;;13.65;;
86319;SDS011;76974;51.278;16.870;2024-03-08T08:49:08;27.45;;;14.20;;
86319;SDS011;76974;51.278;16.870;2024-03-08T08:51:39;50.00;;;27.55;;
86319;SDS011;76974;51.278;16.870;2024-03-08T08:54:05;42.17;;;22.52;;
86319;SDS011;76974;51.278;16.870;2024-03-08T08:56:34;30.23;;;20.00;;
86319;SDS011;76974;51.278;16.870;2024-03-08T08:59:00;38.95;;;19.08;;
86319;SDS011;76974;51.278;16.870;2024-03-08T09:01:26;29.73;;;17.40;;
86319;SDS011;76974;51.278;16.870;2024-03-08T09:03:52;41.22;;;22.50;;
86319;SDS011;76974;51.278;16.870;2024-03-08T09:06:19;41.63;;;22.77;;
86319;SDS011;76974;51.278;16.870;2024-03-08T09:08:45;32.25;;;18.10;;
86319;SDS011;76974;51.278;16.870;2024-03-08T09:11:11;52.50;;;27.30;;
86319;SDS011;76974;51.278;16.870;2024-03-08T09:13:36;39.85;;;22.80;;
86319;SDS011;76974;51.278;16.870;2024-03-08T09:16:03;49.55;;;23.33;;
86319;SDS011;76974;51.278;16.870;2024-03-08T09:18:30;39.08;;;21.25;;
86319;SDS011;76974;51.278;16.870;2024-03-08T09:20:57;38.25;;;22.67;;
86319;SDS011;76974;51.278;16.870;2024-03-08T09:23:25;41.67;;;22.33;;
86319;SDS011;76974;51.278;16.870;2024-03-08T09:25:56;42.58;;;24.05;;
86319;SDS011;76974;51.278;16.870;2024-03-08T09:28:24;49.47;;;26.38;;
86319;SDS011;76974;51.278;16.870;2024-03-08T09:30:50;29.80;;;17.17;;
86319;SDS011;76974;51.278;16.870;2024-03-08T09:33:15;38.00;;;21.25;;
86319;SDS011;76974;51.278;16.870;2024-03-08T09:35:45;32.42;;;17.60;;
86319;SDS011;76974;51.278;16.870;2024-03-08T09:38:16;36.97;;;21.90;;
86319;SDS011;76974;51.278;16.870;2024-03-08T09:40:42;29.63;;;17.92;;
86319;SDS011;76974;51.278;16.870;2024-03-08T09:43:08;37.70;;;20.73;;
86319;SDS011;76974;51.278;16.870;2024-03-08T09:45:37;35.60;;;19.63;;
86319;SDS011;76974;51.278;16.870;2024-03-08T09:48:10;38.40;;;21.20;;
86319;SDS011;76974;51.278;16.870;2024-03-08T09:50:42;36.83;;;20.85;;
86319;SDS011;76974;51.278;16.870;2024-03-08T09:53:08;37.70;;;20.58;;
86319;SDS011;76974;51.278;16.870;2024-03-08T09:55:37;29.13;;;15.88;;
86319;SDS011;76974;51.278;16.870;2024-03-08T09:58:08;27.73;;;17.40;;
86319;SDS011;76974;51.278;16.870;2024-03-08T10:00:54;38.33;;;21.65;;
86319;SDS011;76974;51.278;16.870;2024-03-08T10:03:23;36.53;;;21.13;;
86319;SDS011;76974;51.278;16.870;2024-03-08T10:05:51;32.05;;;18.42;;
86319;SDS011;76974;51.278;16.870;2024-03-08T10:08:17;34.88;;;19.25;;
86319;SDS011;76974;51.278;16.870;2024-03-08T10:10:43;32.53;;;18.92;;
86319;SDS011;76974;51.278;16.870;2024-03-08T10:13:09;28.73;;;17.02;;
86319;SDS011;76974;51.278;16.870;2024-03-08T10:15:37;33.40;;;18.00;;
86319;SDS011;76974;51.278;16.870;2024-03-08T10:18:05;34.00;;;18.80;;
86319;SDS011;76974;51.278;16.870;2024-03-08T10:20:32;23.10;;;14.95;;
86319;SDS011;76974;51.278;16.870;2024-03-08T10:23:02;24.60;;;16.10;;
86319;SDS011;76974;51.278;16.870;2024-03-08T10:25:30;34.17;;;19.38;;
86319;SDS011;76974;51.278;16.870;2024-03-08T10:28:00;30.25;;;17.55;;
86319;SDS011;76974;51.278;16.870;2024-03-08T10:30:29;32.47;;;17.73;;
86319;SDS011;76974;51.278;16.870;2024-03-08T10:32:55;30.70;;;17.27;;
86319;SDS011;76974;51.278;16.870;2024-03-08T10:35:21;24.15;;;14.30;;
86319;SDS011;76974;51.278;16.870;2024-03-08T10:37:49;31.05;;;16.52;;
86319;SDS011;76974;51.278;16.870;2024-03-08T10:40:27;29.65;;;17.52;;
86319;SDS011;76974;51.278;16.870;2024-03-08T10:42:55;28.85;;;16.55;;
86319;SDS011;76974;51.278;16.870;2024-03-08T10:50:38;30.80;;;18.25;;
86319;SDS011;76974;51.278;16.870;2024-03-08T10:53:04;22.98;;;12.57;;
86319;SDS011;76974;51.278;16.870;2024-03-08T10:55:32;23.25;;;15.18;;
86319;SDS011;76974;51.278;16.870;2024-03-08T10:57:59;28.45;;;15.45;;
86319;SDS011;76974;51.278;16.870;2024-03-08T11:00:25;23.48;;;14.23;;
86319;SDS011;76974;51.278;16.870;2024-03-08T11:02:52;29.35;;;16.60;;
86319;SDS011;76974;51.278;16.870;2024-03-08T11:05:38;23.02;;;12.38;;
86319;SDS011;76974;51.278;16.870;2024-03-08T11:10:49;20.50;;;13.05;;
86319;SDS011;76974;51.278;16.870;2024-03-08T11:13:38;20.20;;;11.98;;
86319;SDS011;76974;51.278;16.870;2024-03-08T11:16:11;18.45;;;11.93;;
86319;SDS011;76974;51.278;16.870;2024-03-08T11:19:01;23.05;;;13.18;;
86319;SDS011;76974;51.278;16.870;2024-03-08T11:21:36;22.15;;;11.52;;
86319;SDS011;76974;51.278;16.870;2024-03-08T11:24:09;16.70;;;11.10;;
86319;SDS011;76974;51.278;16.870;2024-03-08T11:26:38;22.30;;;11.63;;
86319;SDS011;76974;51.278;16.870;2024-03-08T11:31:52;21.92;;;12.23;;
86319;SDS011;76974;51.278;16.870;2024-03-08T11:34:29;18.90;;;11.38;;
86319;SDS011;76974;51.278;16.870;2024-03-08T11:36:55;14.15;;;8.82;;
86319;SDS011;76974;51.278;16.870;2024-03-08T11:39:21;17.67;;;11.68;;
86319;SDS011;76974;51.278;16.870;2024-03-08T11:41:49;20.17;;;12.43;;
86319;SDS011;76974;51.278;16.870;2024-03-08T11:44:21;21.50;;;11.32;;
86319;SDS011;76974;51.278;16.870;2024-03-08T11:46:52;13.75;;;8.20;;
86319;SDS011;76974;51.278;16.870;2024-03-08T11:49:27;19.42;;;10.25;;
86319;SDS011;76974;51.278;16.870;2024-03-08T11:51:53;18.55;;;11.02;;
86319;SDS011;76974;51.278;16.870;2024-03-08T11:54:19;18.05;;;11.68;;
86319;SDS011;76974;51.278;16.870;2024-03-08T11:56:45;19.48;;;12.70;;
86319;SDS011;76974;51.278;16.870;2024-03-08T11:59:14;14.02;;;9.52;;
86319;SDS011;76974;51.278;16.870;2024-03-08T12:01:39;17.02;;;9.18;;
86319;SDS011;76974;51.278;16.870;2024-03-08T12:04:05;35.58;;;18.40;;
86319;SDS011;76974;51.278;16.870;2024-03-08T12:06:37;10.27;;;8.00;;
86319;SDS011;76974;51.278;16.870;2024-03-08T12:09:07;15.93;;;9.98;;
86319;SDS011;76974;51.278;16.870;2024-03-08T12:11:36;20.85;;;11.10;;
86319;SDS011;76974;51.278;16.870;2024-03-08T12:14:02;22.55;;;11.48;;
86319;SDS011;76974;51.278;16.870;2024-03-08T12:16:32;19.52;;;11.23;;
86319;SDS011;76974;51.278;16.870;2024-03-08T12:18:58;14.48;;;9.32;;
86319;SDS011;76974;51.278;16.870;2024-03-08T12:21:26;18.65;;;12.57;;
86319;SDS011;76974;51.278;16.870;2024-03-08T12:24:04;18.98;;;10.75;;
86319;SDS011;76974;51.278;16.870;2024-03-08T12:26:35;26.45;;;15.43;;
86319;SDS011;76974;51.278;16.870;2024-03-08T12:31:42;17.30;;;11.15;;
86319;SDS011;76974;51.278;16.870;2024-03-08T12:34:07;20.05;;;12.18;;
86319;SDS011;76974;51.278;16.870;2024-03-08T12:36:35;16.45;;;9.32;;
86319;SDS011;76974;51.278;16.870;2024-03-08T12:39:01;14.60;;;9.43;;
86319;SDS011;76974;51.278;16.870;2024-03-08T12:41:29;20.98;;;13.20;;
86319;SDS011;76974;51.278;16.870;2024-03-08T12:43:54;13.18;;;8.68;;
86319;SDS011;76974;51.278;16.870;2024-03-08T12:46:21;19.75;;;11.48;;
86319;SDS011;76974;51.278;16.870;2024-03-08T12:48:47;18.40;;;11.85;;
86319;SDS011;76974;51.278;16.870;2024-03-08T12:51:17;14.23;;;9.65;;
86319;SDS011;76974;51.278;16.870;2024-03-08T12:53:43;13.90;;;9.32;;
86319;SDS011;76974;51.278;16.870;2024-03-08T12:56:11;21.40;;;11.23;;
86319;SDS011;76974;51.278;16.870;2024-03-08T12:58:37;12.32;;;8.02;;
86319;SDS011;76974;51.278;16.870;2024-03-08T13:01:04;18.73;;;10.10;;
86319;SDS011;76974;51.278;16.870;2024-03-08T13:03:32;22.95;;;13.70;;
86319;SDS011;76974;51.278;16.870;2024-03-08T13:06:01;13.82;;;8.60;;
86319;SDS011;76974;51.278;16.870;2024-03-08T13:08:36;18.50;;;10.98;;
86319;SDS011;76974;51.278;16.870;2024-03-08T13:11:06;14.25;;;8.18;;
86319;SDS011;76974;51.278;16.870;2024-03-08T13:13:32;20.17;;;11.50;;
86319;SDS011;76974;51.278;16.870;2024-03-08T13:16:02;10.93;;;6.85;;
86319;SDS011;76974;51.278;16.870;2024-03-08T13:18:30;16.80;;;9.13;;
86319;SDS011;76974;51.278;16.870;2024-03-08T13:20:56;14.70;;;9.48;;
86319;SDS011;76974;51.278;16.870;2024-03-08T13:23:24;19.25;;;10.75;;
86319;SDS011;76974;51.278;16.870;2024-03-08T13:25:50;13.70;;;9.88;;
86319;SDS011;76974;51.278;16.870;2024-03-08T13:28:16;17.15;;;10.50;;
86319;SDS011;76974;51.278;16.870;2024-03-08T13:30:48;21.50;;;10.55;;
86319;SDS011;76974;51.278;16.870;2024-03-08T13:33:13;18.83;;;9.98;;
86319;SDS011;76974;51.278;16.870;2024-03-08T13:35:39;18.70;;;12.30;;
86319;SDS011;76974;51.278;16.870;2024-03-08T13:38:06;14.82;;;9.27;;
86319;SDS011;76974;51.278;16.870;2024-03-08T13:40:36;18.33;;;11.88;;
86319;SDS011;76974;51.278;16.870;2024-03-08T13:43:09;19.95;;;11.57;;
86319;SDS011;76974;51.278;16.870;2024-03-08T13:45:41;17.13;;;12.30;;
86319;SDS011;76974;51.278;16.870;2024-03-08T13:48:10;23.45;;;12.45;;
86319;SDS011;76974;51.278;16.870;2024-03-08T13:50:39;16.13;;;8.48;;
86319;SDS011;76974;51.278;16.870;2024-03-08T13:53:07;19.17;;;11.02;;
86319;SDS011;76974;51.278;16.870;2024-03-08T13:55:35;19.63;;;11.95;;
86319;SDS011;76974;51.278;16.870;2024-03-08T13:58:00;19.13;;;11.90;;
86319;SDS011;76974;51.278;16.870;2024-03-08T14:00:27;17.58;;;9.95;;
86319;SDS011;76974;51.278;16.870;2024-03-08T14:02:59;17.17;;;11.52;;
86319;SDS011;76974;51.278;16.870;2024-03-08T14:05:34;16.95;;;10.13;;
86319;SDS011;76974;51.278;16.870;2024-03-08T14:08:02;18.73;;;11.50;;
86319;SDS011;76974;51.278;16.870;2024-03-08T14:10:30;16.58;;;9.10;;
86319;SDS011;76974;51.278;16.870;2024-03-08T14:13:03;21.92;;;12.85;;
86319;SDS011;76974;51.278;16.870;2024-03-08T14:15:33;21.17;;;13.10;;
86319;SDS011;76974;51.278;16.870;2024-03-08T14:18:00;13.13;;;9.48;;
86319;SDS011;76974;51.278;16.870;2024-03-08T14:20:31;21.58;;;11.85;;
86319;SDS011;76974;51.278;16.870;2024-03-08T14:22:57;15.07;;;9.98;;
86319;SDS011;76974;51.278;16.870;2024-03-08T14:25:23;22.80;;;12.43;;
86319;SDS011;76974;51.278;16.870;2024-03-08T14:27:53;13.30;;;9.32;;
86319;SDS011;76974;51.278;16.870;2024-03-08T14:30:19;13.23;;;8.82;;
86319;SDS011;76974;51.278;16.870;2024-03-08T14:33:00;18.58;;;11.40;;
86319;SDS011;76974;51.278;16.870;2024-03-08T14:35:27;22.45;;;12.60;;
86319;SDS011;76974;51.278;16.870;2024-03-08T14:37:55;22.10;;;13.77;;
86319;SDS011;76974;51.278;16.870;2024-03-08T14:40:27;24.13;;;12.57;;
86319;SDS011;76974;51.278;16.870;2024-03-08T14:42:55;19.02;;;11.27;;
86319;SDS011;76974;51.278;16.870;2024-03-08T14:45:29;16.38;;;10.05;;
86319;SDS011;76974;51.278;16.870;2024-03-08T14:47:56;22.13;;;11.30;;
86319;SDS011;76974;51.278;16.870;2024-03-08T14:50:23;18.02;;;9.98;;
86319;SDS011;76974;51.278;16.870;2024-03-08T14:52:50;19.23;;;10.02;;
86319;SDS011;76974;51.278;16.870;2024-03-08T14:55:16;22.23;;;13.38;;
86319;SDS011;76974;51.278;16.870;2024-03-08T15:00:39;16.73;;;10.48;;
86319;SDS011;76974;51.278;16.870;2024-03-08T15:03:07;19.50;;;12.25;;
86319;SDS011;76974;51.278;16.870;2024-03-08T15:05:35;13.40;;;9.32;;
86319;SDS011;76974;51.278;16.870;2024-03-08T15:08:07;20.52;;;12.32;;
86319;SDS011;76974;51.278;16.870;2024-03-08T15:10:36;21.63;;;10.15;;
86319;SDS011;76974;51.278;16.870;2024-03-08T15:13:01;24.58;;;15.23;;
86319;SDS011;76974;51.278;16.870;2024-03-08T15:15:41;22.38;;;12.93;;
86319;SDS011;76974;51.278;16.870;2024-03-08T15:18:08;22.92;;;13.70;;
86319;SDS011;76974;51.278;16.870;2024-03-08T15:20:35;19.75;;;12.63;;
86319;SDS011;76974;51.278;16.870;2024-03-08T15:23:00;21.40;;;10.43;;
86319;SDS011;76974;51.278;16.870;2024-03-08T15:25:39;28.42;;;14.88;;
86319;SDS011;76974;51.278;16.870;2024-03-08T15:31:01;22.83;;;13.68;;
86319;SDS011;76974;51.278;16.870;2024-03-08T15:33:31;21.38;;;14.85;;
86319;SDS011;76974;51.278;16.870;2024-03-08T15:35:58;16.73;;;10.38;;
86319;SDS011;76974;51.278;16.870;2024-03-08T15:41:45;20.00;;;11.50;;
86319;SDS011;76974;51.278;16.870;2024-03-08T15:44:11;20.23;;;11.55;;
86319;SDS011;76974;51.278;16.870;2024-03-08T15:46:38;24.70;;;12.63;;
86319;SDS011;76974;51.278;16.870;2024-03-08T15:49:08;25.13;;;13.77;;
86319;SDS011;76974;51.278;16.870;2024-03-08T15:51:34;25.88;;;14.07;;
86319;SDS011;76974;51.278;16.870;2024-03-08T15:54:01;22.05;;;11.32;;
86319;SDS011;76974;51.278;16.870;2024-03-08T15:56:29;22.48;;;12.80;;
86319;SDS011;76974;51.278;16.870;2024-03-08T15:59:03;14.80;;;9.05;;
86319;SDS011;76974;51.278;16.870;2024-03-08T16:01:31;28.20;;;13.98;;
86319;SDS011;76974;51.278;16.870;2024-03-08T16:03:58;30.08;;;14.68;;
86319;SDS011;76974;51.278;16.870;2024-03-08T16:09:53;23.48;;;14.25;;
86319;SDS011;76974;51.278;16.870;2024-03-08T16:12:19;28.48;;;15.23;;
86319;SDS011;76974;51.278;16.870;2024-03-08T16:14:49;29.90;;;15.98;;
86319;SDS011;76974;51.278;16.870;2024-03-08T16:17:16;25.98;;;13.38;;
86319;SDS011;76974;51.278;16.870;2024-03-08T16:19:42;24.10;;;11.63;;
86319;SDS011;76974;51.278;16.870;2024-03-08T16:22:08;27.85;;;15.70;;
86319;SDS011;76974;51.278;16.870;2024-03-08T16:24:34;29.95;;;16.90;;
86319;SDS011;76974;51.278;16.870;2024-03-08T16:27:02;34.22;;;17.95;;
86319;SDS011;76974;51.278;16.870;2024-03-08T16:29:27;28.52;;;15.50;;
86319;SDS011;76974;51.278;16.870;2024-03-08T16:31:54;24.73;;;13.77;;
86319;SDS011;76974;51.278;16.870;2024-03-08T16:34:20;32.10;;;15.52;;
86319;SDS011;76974;51.278;16.870;2024-03-08T16:36:47;31.60;;;15.43;;
86319;SDS011;76974;51.278;16.870;2024-03-08T16:39:13;31.48;;;14.60;;
86319;SDS011;76974;51.278;16.870;2024-03-08T16:41:39;27.35;;;15.15;;
86319;SDS011;76974;51.278;16.870;2024-03-08T16:44:05;29.42;;;16.83;;
86319;SDS011;76974;51.278;16.870;2024-03-08T16:46:31;29.77;;;16.35;;
86319;SDS011;76974;51.278;16.870;2024-03-08T16:48:58;23.60;;;12.48;;
86319;SDS011;76974;51.278;16.870;2024-03-08T16:51:23;25.92;;;14.20;;
86319;SDS011;76974;51.278;16.870;2024-03-08T16:53:49;23.45;;;14.20;;
86319;SDS011;76974;51.278;16.870;2024-03-08T16:56:15;28.55;;;15.85;;
86319;SDS011;76974;51.278;16.870;2024-03-08T16:58:43;31.40;;;16.77;;
86319;SDS011;76974;51.278;16.870;2024-03-08T17:01:09;28.65;;;16.10;;
86319;SDS011;76974;51.278;16.870;2024-03-08T17:03:35;25.52;;;12.68;;
86319;SDS011;76974;51.278;16.870;2024-03-08T17:06:02;32.58;;;16.95;;
86319;SDS011;76974;51.278;16.870;2024-03-08T17:08:31;29.13;;;15.75;;
86319;SDS011;76974;51.278;16.870;2024-03-08T17:10:57;34.25;;;17.33;;
86319;SDS011;76974;51.278;16.870;2024-03-08T17:13:23;31.90;;;17.17;;
86319;SDS011;76974;51.278;16.870;2024-03-08T17:15:49;32.30;;;15.98;;
86319;SDS011;76974;51.278;16.870;2024-03-08T17:18:15;36.08;;;17.00;;
86319;SDS011;76974;51.278;16.870;2024-03-08T17:20:40;28.90;;;17.50;;
86319;SDS011;76974;51.278;16.870;2024-03-08T17:23:07;30.80;;;15.82;;
86319;SDS011;76974;51.278;16.870;2024-03-08T17:25:38;27.30;;;15.80;;
86319;SDS011;76974;51.278;16.870;2024-03-08T17:28:05;29.23;;;16.13;;
86319;SDS011;76974;51.278;16.870;2024-03-08T17:30:34;32.22;;;16.08;;
86319;SDS011;76974;51.278;16.870;2024-03-08T17:33:03;29.10;;;14.93;;
86319;SDS011;76974;51.278;16.870;2024-03-08T17:35:34;36.50;;;19.15;;
86319;SDS011;76974;51.278;16.870;2024-03-08T17:38:00;33.70;;;15.82;;
86319;SDS011;76974;51.278;16.870;2024-03-08T17:40:37;25.08;;;15.27;;
86319;SDS011;76974;51.278;16.870;2024-03-08T17:43:05;30.45;;;16.55;;
86319;SDS011;76974;51.278;16.870;2024-03-08T17:45:42;32.42;;;15.60;;
86319;SDS011;76974;51.278;16.870;2024-03-08T17:48:10;30.80;;;16.52;;
86319;SDS011;76974;51.278;16.870;2024-03-08T17:50:39;32.30;;;15.88;;
86319;SDS011;76974;51.278;16.870;2024-03-08T17:53:06;28.98;;;14.85;;
86319;SDS011;76974;51.278;16.870;2024-03-08T17:55:37;31.75;;;15.55;;
86319;SDS011;76974;51.278;16.870;2024-03-08T17:58:08;29.23;;;16.42;;
86319;SDS011;76974;51.278;16.870;2024-03-08T18:00:38;30.20;;;16.67;;
86319;SDS011;76974;51.278;16.870;2024-03-08T18:03:09;24.77;;;14.40;;
86319;SDS011;76974;51.278;16.870;2024-03-08T18:05:41;27.23;;;15.73;;
86319;SDS011;76974;51.278;16.870;2024-03-08T18:08:10;30.77;;;15.65;;
86319;SDS011;76974;51.278;16.870;2024-03-08T18:10:39;25.50;;;14.15;;
86319;SDS011;76974;51.278;16.870;2024-03-08T18:13:06;25.73;;;13.55;;
86319;SDS011;76974;51.278;16.870;2024-03-08T18:15:44;24.60;;;13.98;;
86319;SDS011;76974;51.278;16.870;2024-03-08T18:18:11;30.08;;;14.52;;
86319;SDS011;76974;51.278;16.870;2024-03-08T18:20:38;29.40;;;13.32;;
86319;SDS011;76974;51.278;16.870;2024-03-08T18:23:14;26.42;;;13.13;;
86319;SDS011;76974;51.278;16.870;2024-03-08T18:25:42;24.25;;;13.38;;
86319;SDS011;76974;51.278;16.870;2024-03-08T18:28:13;31.25;;;14.82;;